sensor_id;sensor_type;location;lat;lon;timestamp;temperature;humidity
19665;DHT22;9980;51.020;7.772;2023-11-22T00:01:30;8.50;99.90
19665;DHT22;9980;51.020;7.772;2023-11-22T00:04:01;8.40;99.90
19665;DHT22;9980;51.020;7.772;2023-11-22T00:06:28;8.40;99.90
19665;DHT22;9980;51.020;7.772;2023-11-22T00:08:56;8.40;99.90
19665;DHT22;9980;51.020;7.772;2023-11-22T00:11:23;8.40;99.90
19665;DHT22;9980;51.020;7.772;2023-11-22T00:13:51;8.40;99.90
19665;DHT22;9980;51.020;7.772;2023-11-22T00:16:24;8.40;99.90
19665;DHT22;9980;51.020;7.772;2023-11-22T00:18:51;8.40;99.90
19665;DHT22;9980;51.020;7.772;2023-11-22T00:21:18;8.40;99.90
19665;DHT22;9980;51.020;7.772;2023-11-22T00:23:47;8.40;99.90
19665;DHT22;9980;51.020;7.772;2023-11-22T00:26:14;8.40;99.90
19665;DHT22;9980;51.020;7.772;2023-11-22T00:28:51;8.40;99.90
19665;DHT22;9980;51.020;7.772;2023-11-22T00:31:20;8.40;99.90
19665;DHT22;9980;51.020;7.772;2023-11-22T00:33:49;8.30;99.90
19665;DHT22;9980;51.020;7.772;2023-11-22T00:36:15;8.40;99.90
19665;DHT22;9980;51.020;7.772;2023-11-22T00:38:43;8.40;99.90
19665;DHT22;9980;51.020;7.772;2023-11-22T00:41:10;8.40;99.90
19665;DHT22;9980;51.020;7.772;2023-11-22T00:43:37;8.40;99.90
19665;DHT22;9980;51.020;7.772;2023-11-22T00:46:05;8.40;99.90
19665;DHT22;9980;51.020;7.772;2023-11-22T00:48:32;8.40;99.90
19665;DHT22;9980;51.020;7.772;2023-11-22T00:51:01;8.40;99.90
19665;DHT22;9980;51.020;7.772;2023-11-22T00:53:35;8.40;99.90
19665;DHT22;9980;51.020;7.772;2023-11-22T00:56:05;8.40;99.90
19665;DHT22;9980;51.020;7.772;2023-11-22T00:58:33;8.40;99.90
19665;DHT22;9980;51.020;7.772;2023-11-22T01:01:00;8.40;99.90
19665;DHT22;9980;51.020;7.772;2023-11-22T01:03:27;8.40;99.90
19665;DHT22;9980;51.020;7.772;2023-11-22T01:05:54;8.40;99.90
19665;DHT22;9980;51.020;7.772;2023-11-22T01:08:21;8.40;99.90
19665;DHT22;9980;51.020;7.772;2023-11-22T01:10:48;8.40;99.90
19665;DHT22;9980;51.020;7.772;2023-11-22T01:13:16;8.40;99.90
19665;DHT22;9980;51.020;7.772;2023-11-22T01:15:43;8.40;99.90
19665;DHT22;9980;51.020;7.772;2023-11-22T01:18:11;8.40;99.90
19665;DHT22;9980;51.020;7.772;2023-11-22T01:20:38;8.40;99.90
19665;DHT22;9980;51.020;7.772;2023-11-22T01:23:05;8.40;99.90
19665;DHT22;9980;51.020;7.772;2023-11-22T01:25:32;8.40;99.90
19665;DHT22;9980;51.020;7.772;2023-11-22T01:27:59;8.40;99.90
19665;DHT22;9980;51.020;7.772;2023-11-22T01:30:27;8.40;99.90
19665;DHT22;9980;51.020;7.772;2023-11-22T01:32:55;8.40;99.90
19665;DHT22;9980;51.020;7.772;2023-11-22T01:35:22;8.40;99.90
19665;DHT22;9980;51.020;7.772;2023-11-22T01:37:50;8.40;99.90
19665;DHT22;9980;51.020;7.772;2023-11-22T01:40:17;8.40;99.90
19665;DHT22;9980;51.020;7.772;2023-11-22T01:42:46;8.30;99.90
19665;DHT22;9980;51.020;7.772;2023-11-22T01:45:13;8.40;99.90
19665;DHT22;9980;51.020;7.772;2023-11-22T01:47:41;8.30;99.90
19665;DHT22;9980;51.020;7.772;2023-11-22T01:50:10;8.30;99.90
19665;DHT22;9980;51.020;7.772;2023-11-22T01:52:38;8.30;99.90
19665;DHT22;9980;51.020;7.772;2023-11-22T01:55:06;8.30;99.90
19665;DHT22;9980;51.020;7.772;2023-11-22T01:57:35;8.30;99.90
19665;DHT22;9980;51.020;7.772;2023-11-22T02:00:05;8.20;99.90
19665;DHT22;9980;51.020;7.772;2023-11-22T02:02:41;8.30;99.90
19665;DHT22;9980;51.020;7.772;2023-11-22T02:05:09;8.20;99.90
19665;DHT22;9980;51.020;7.772;2023-11-22T02:07:37;8.20;99.90
19665;DHT22;9980;51.020;7.772;2023-11-22T02:10:07;8.20;99.90
19665;DHT22;9980;51.020;7.772;2023-11-22T02:12:34;8.20;99.90
19665;DHT22;9980;51.020;7.772;2023-11-22T02:15:03;8.20;99.90
19665;DHT22;9980;51.020;7.772;2023-11-22T02:17:30;8.20;99.90
19665;DHT22;9980;51.020;7.772;2023-11-22T02:19:58;8.20;99.90
19665;DHT22;9980;51.020;7.772;2023-11-22T02:22:25;8.20;99.90
19665;DHT22;9980;51.020;7.772;2023-11-22T02:24:52;8.10;99.90
19665;DHT22;9980;51.020;7.772;2023-11-22T02:27:19;8.10;99.90
19665;DHT22;9980;51.020;7.772;2023-11-22T02:29:46;8.10;99.90
19665;DHT22;9980;51.020;7.772;2023-11-22T02:32:12;8.10;99.90
19665;DHT22;9980;51.020;7.772;2023-11-22T02:34:39;8.10;99.90
19665;DHT22;9980;51.020;7.772;2023-11-22T02:37:06;8.10;99.90
19665;DHT22;9980;51.020;7.772;2023-11-22T02:39:52;8.10;99.90
19665;DHT22;9980;51.020;7.772;2023-11-22T02:42:25;8.10;99.90
19665;DHT22;9980;51.020;7.772;2023-11-22T02:44:52;8.10;99.90
19665;DHT22;9980;51.020;7.772;2023-11-22T02:47:19;8.00;99.90
19665;DHT22;9980;51.020;7.772;2023-11-22T02:49:46;8.00;99.90
19665;DHT22;9980;51.020;7.772;2023-11-22T02:52:13;8.00;99.90
19665;DHT22;9980;51.020;7.772;2023-11-22T02:54:43;8.00;99.90
19665;DHT22;9980;51.020;7.772;2023-11-22T02:57:12;8.00;99.90
19665;DHT22;9980;51.020;7.772;2023-11-22T02:59:44;8.00;99.90
19665;DHT22;9980;51.020;7.772;2023-11-22T03:02:11;7.90;99.90
19665;DHT22;9980;51.020;7.772;2023-11-22T03:04:38;7.90;99.90
19665;DHT22;9980;51.020;7.772;2023-11-22T03:07:05;7.90;99.90
19665;DHT22;9980;51.020;7.772;2023-11-22T03:09:33;7.90;99.90
19665;DHT22;9980;51.020;7.772;2023-11-22T03:12:00;7.80;99.90
19665;DHT22;9980;51.020;7.772;2023-11-22T03:14:29;7.80;99.90
19665;DHT22;9980;51.020;7.772;2023-11-22T03:16:57;7.80;99.90
19665;DHT22;9980;51.020;7.772;2023-11-22T03:19:24;7.80;99.90
19665;DHT22;9980;51.020;7.772;2023-11-22T03:21:51;7.70;99.90
19665;DHT22;9980;51.020;7.772;2023-11-22T03:24:18;7.60;99.90
19665;DHT22;9980;51.020;7.772;2023-11-22T03:26:48;7.60;99.90
19665;DHT22;9980;51.020;7.772;2023-11-22T03:29:15;7.50;99.90
19665;DHT22;9980;51.020;7.772;2023-11-22T03:31:45;7.40;99.90
19665;DHT22;9980;51.020;7.772;2023-11-22T03:34:14;7.40;99.90
19665;DHT22;9980;51.020;7.772;2023-11-22T03:36:41;7.30;99.90
19665;DHT22;9980;51.020;7.772;2023-11-22T03:39:08;7.30;99.90
19665;DHT22;9980;51.020;7.772;2023-11-22T03:41:36;7.30;99.90
19665;DHT22;9980;51.020;7.772;2023-11-22T03:44:05;7.20;99.90
19665;DHT22;9980;51.020;7.772;2023-11-22T03:46:36;7.20;99.90
19665;DHT22;9980;51.020;7.772;2023-11-22T03:49:05;7.10;99.90
19665;DHT22;9980;51.020;7.772;2023-11-22T03:51:34;7.10;99.90
19665;DHT22;9980;51.020;7.772;2023-11-22T03:54:03;7.00;99.90
19665;DHT22;9980;51.020;7.772;2023-11-22T03:56:30;7.00;99.90
19665;DHT22;9980;51.020;7.772;2023-11-22T03:58:58;6.90;99.90
19665;DHT22;9980;51.020;7.772;2023-11-22T04:01:25;6.80;99.90
19665;DHT22;9980;51.020;7.772;2023-11-22T04:03:52;6.80;99.90
19665;DHT22;9980;51.020;7.772;2023-11-22T04:06:20;6.80;99.90
19665;DHT22;9980;51.020;7.772;2023-11-22T04:08:47;6.70;99.90
19665;DHT22;9980;51.020;7.772;2023-11-22T04:11:15;6.70;99.90
19665;DHT22;9980;51.020;7.772;2023-11-22T04:13:44;6.60;99.90
19665;DHT22;9980;51.020;7.772;2023-11-22T04:16:12;6.60;99.90
19665;DHT22;9980;51.020;7.772;2023-11-22T04:18:40;6.50;99.90
19665;DHT22;9980;51.020;7.772;2023-11-22T04:21:08;6.50;99.90
19665;DHT22;9980;51.020;7.772;2023-11-22T04:23:35;6.40;99.90
19665;DHT22;9980;51.020;7.772;2023-11-22T04:26:06;6.40;99.90
19665;DHT22;9980;51.020;7.772;2023-11-22T04:28:34;6.30;99.90
19665;DHT22;9980;51.020;7.772;2023-11-22T04:31:01;6.30;99.90
19665;DHT22;9980;51.020;7.772;2023-11-22T04:33:28;6.20;99.90
19665;DHT22;9980;51.020;7.772;2023-11-22T04:35:55;6.20;99.90
19665;DHT22;9980;51.020;7.772;2023-11-22T04:38:23;6.10;99.90
19665;DHT22;9980;51.020;7.772;2023-11-22T04:40:50;6.10;99.90
19665;DHT22;9980;51.020;7.772;2023-11-22T04:43:17;6.00;99.90
19665;DHT22;9980;51.020;7.772;2023-11-22T04:45:43;6.00;99.90
19665;DHT22;9980;51.020;7.772;2023-11-22T04:48:11;5.90;99.90
19665;DHT22;9980;51.020;7.772;2023-11-22T04:50:38;5.90;99.90
19665;DHT22;9980;51.020;7.772;2023-11-22T04:53:05;5.80;99.90
19665;DHT22;9980;51.020;7.772;2023-11-22T04:55:32;5.80;99.90
19665;DHT22;9980;51.020;7.772;2023-11-22T04:57:59;5.70;99.90
19665;DHT22;9980;51.020;7.772;2023-11-22T05:00:26;5.70;99.90
19665;DHT22;9980;51.020;7.772;2023-11-22T05:02:53;5.70;99.90
19665;DHT22;9980;51.020;7.772;2023-11-22T05:05:21;5.60;99.90
19665;DHT22;9980;51.020;7.772;2023-11-22T05:07:48;5.60;99.90
19665;DHT22;9980;51.020;7.772;2023-11-22T05:10:15;5.50;99.90
19665;DHT22;9980;51.020;7.772;2023-11-22T05:12:43;5.50;99.90
19665;DHT22;9980;51.020;7.772;2023-11-22T05:15:11;5.40;99.90
19665;DHT22;9980;51.020;7.772;2023-11-22T05:17:38;5.40;99.90
19665;DHT22;9980;51.020;7.772;2023-11-22T05:20:06;5.40;99.90
19665;DHT22;9980;51.020;7.772;2023-11-22T05:22:36;5.40;99.90
19665;DHT22;9980;51.020;7.772;2023-11-22T05:25:05;5.30;99.90
19665;DHT22;9980;51.020;7.772;2023-11-22T05:27:33;5.30;99.90
19665;DHT22;9980;51.020;7.772;2023-11-22T05:30:00;5.20;99.90
19665;DHT22;9980;51.020;7.772;2023-11-22T05:32:28;5.20;99.90
19665;DHT22;9980;51.020;7.772;2023-11-22T05:34:58;5.20;99.90
19665;DHT22;9980;51.020;7.772;2023-11-22T05:37:25;5.10;99.90
19665;DHT22;9980;51.020;7.772;2023-11-22T05:39:53;5.10;99.90
19665;DHT22;9980;51.020;7.772;2023-11-22T05:42:20;5.00;99.90
19665;DHT22;9980;51.020;7.772;2023-11-22T05:44:47;5.00;99.90
19665;DHT22;9980;51.020;7.772;2023-11-22T05:47:14;5.00;99.90
19665;DHT22;9980;51.020;7.772;2023-11-22T05:49:45;5.00;99.90
19665;DHT22;9980;51.020;7.772;2023-11-22T05:52:12;4.90;99.90
19665;DHT22;9980;51.020;7.772;2023-11-22T05:54:39;4.90;99.90
19665;DHT22;9980;51.020;7.772;2023-11-22T05:57:06;4.90;99.90
19665;DHT22;9980;51.020;7.772;2023-11-22T05:59:33;4.80;99.90
19665;DHT22;9980;51.020;7.772;2023-11-22T06:02:00;4.80;99.90
19665;DHT22;9980;51.020;7.772;2023-11-22T06:04:27;4.80;99.90
19665;DHT22;9980;51.020;7.772;2023-11-22T06:06:54;4.70;99.90
19665;DHT22;9980;51.020;7.772;2023-11-22T06:09:21;4.70;99.90
19665;DHT22;9980;51.020;7.772;2023-11-22T06:11:49;4.70;99.90
19665;DHT22;9980;51.020;7.772;2023-11-22T06:14:16;4.70;99.90
19665;DHT22;9980;51.020;7.772;2023-11-22T06:16:43;4.60;99.90
19665;DHT22;9980;51.020;7.772;2023-11-22T06:19:10;4.60;99.90
19665;DHT22;9980;51.020;7.772;2023-11-22T06:21:37;4.60;99.90
19665;DHT22;9980;51.020;7.772;2023-11-22T06:24:05;4.50;99.90
19665;DHT22;9980;51.020;7.772;2023-11-22T06:26:35;4.50;99.90
19665;DHT22;9980;51.020;7.772;2023-11-22T06:29:02;4.50;99.90
19665;DHT22;9980;51.020;7.772;2023-11-22T06:31:29;4.40;99.90
19665;DHT22;9980;51.020;7.772;2023-11-22T06:33:56;4.40;99.90
19665;DHT22;9980;51.020;7.772;2023-11-22T06:36:23;4.40;99.90
19665;DHT22;9980;51.020;7.772;2023-11-22T06:38:50;4.40;99.90
19665;DHT22;9980;51.020;7.772;2023-11-22T06:41:17;4.30;99.90
19665;DHT22;9980;51.020;7.772;2023-11-22T06:43:44;4.30;99.90
19665;DHT22;9980;51.020;7.772;2023-11-22T06:46:11;4.30;99.90
19665;DHT22;9980;51.020;7.772;2023-11-22T06:48:38;4.30;99.90
19665;DHT22;9980;51.020;7.772;2023-11-22T06:51:05;4.20;99.90
19665;DHT22;9980;51.020;7.772;2023-11-22T06:53:33;4.20;99.90
19665;DHT22;9980;51.020;7.772;2023-11-22T06:56:00;4.20;99.90
19665;DHT22;9980;51.020;7.772;2023-11-22T06:58:27;4.20;99.90
19665;DHT22;9980;51.020;7.772;2023-11-22T07:00:54;4.10;99.90
19665;DHT22;9980;51.020;7.772;2023-11-22T07:03:22;4.10;99.90
19665;DHT22;9980;51.020;7.772;2023-11-22T07:05:49;4.10;99.90
19665;DHT22;9980;51.020;7.772;2023-11-22T07:08:17;4.00;99.90
19665;DHT22;9980;51.020;7.772;2023-11-22T07:10:44;4.00;99.90
19665;DHT22;9980;51.020;7.772;2023-11-22T07:13:12;4.00;99.90
19665;DHT22;9980;51.020;7.772;2023-11-22T07:15:41;4.00;99.90
19665;DHT22;9980;51.020;7.772;2023-11-22T07:18:08;3.90;99.90
19665;DHT22;9980;51.020;7.772;2023-11-22T07:20:36;3.90;99.90
19665;DHT22;9980;51.020;7.772;2023-11-22T07:23:05;3.90;99.90
19665;DHT22;9980;51.020;7.772;2023-11-22T07:25:33;3.90;99.90
19665;DHT22;9980;51.020;7.772;2023-11-22T07:28:00;3.80;99.90
19665;DHT22;9980;51.020;7.772;2023-11-22T07:30:27;3.80;99.90
19665;DHT22;9980;51.020;7.772;2023-11-22T07:32:57;3.80;99.90
19665;DHT22;9980;51.020;7.772;2023-11-22T07:35:26;3.80;99.90
19665;DHT22;9980;51.020;7.772;2023-11-22T07:37:58;3.80;99.90
19665;DHT22;9980;51.020;7.772;2023-11-22T07:40:25;3.80;99.90
19665;DHT22;9980;51.020;7.772;2023-11-22T07:42:52;3.80;99.90
19665;DHT22;9980;51.020;7.772;2023-11-22T07:45:19;3.70;99.90
19665;DHT22;9980;51.020;7.772;2023-11-22T07:47:46;3.70;99.90
19665;DHT22;9980;51.020;7.772;2023-11-22T07:50:14;3.70;99.90
19665;DHT22;9980;51.020;7.772;2023-11-22T07:52:41;3.70;99.90
19665;DHT22;9980;51.020;7.772;2023-11-22T07:55:09;3.70;99.90
19665;DHT22;9980;51.020;7.772;2023-11-22T07:57:38;3.60;99.90
19665;DHT22;9980;51.020;7.772;2023-11-22T08:00:06;3.70;99.90
19665;DHT22;9980;51.020;7.772;2023-11-22T08:02:37;3.60;99.90
19665;DHT22;9980;51.020;7.772;2023-11-22T08:05:12;3.60;99.90
19665;DHT22;9980;51.020;7.772;2023-11-22T08:07:42;3.70;99.90
19665;DHT22;9980;51.020;7.772;2023-11-22T08:10:15;3.60;99.90
19665;DHT22;9980;51.020;7.772;2023-11-22T08:12:47;3.60;99.90
19665;DHT22;9980;51.020;7.772;2023-11-22T08:15:16;3.60;99.90
19665;DHT22;9980;51.020;7.772;2023-11-22T08:17:46;3.60;99.90
19665;DHT22;9980;51.020;7.772;2023-11-22T08:20:13;3.60;99.90
19665;DHT22;9980;51.020;7.772;2023-11-22T08:22:45;3.60;99.90
19665;DHT22;9980;51.020;7.772;2023-11-22T08:25:13;3.60;99.90
19665;DHT22;9980;51.020;7.772;2023-11-22T08:27:42;3.60;99.90
19665;DHT22;9980;51.020;7.772;2023-11-22T08:30:09;3.60;99.90
19665;DHT22;9980;51.020;7.772;2023-11-22T08:32:42;3.60;99.90
19665;DHT22;9980;51.020;7.772;2023-11-22T08:35:11;3.70;99.90
19665;DHT22;9980;51.020;7.772;2023-11-22T08:37:40;3.70;99.90
19665;DHT22;9980;51.020;7.772;2023-11-22T08:40:09;3.70;99.90
19665;DHT22;9980;51.020;7.772;2023-11-22T08:42:47;3.70;99.90
19665;DHT22;9980;51.020;7.772;2023-11-22T08:45:14;3.70;99.90
19665;DHT22;9980;51.020;7.772;2023-11-22T08:47:42;3.70;99.90
19665;DHT22;9980;51.020;7.772;2023-11-22T08:50:10;3.80;99.90
19665;DHT22;9980;51.020;7.772;2023-11-22T08:52:40;3.80;99.90
19665;DHT22;9980;51.020;7.772;2023-11-22T08:55:09;3.90;99.90
19665;DHT22;9980;51.020;7.772;2023-11-22T08:57:37;3.90;99.90
19665;DHT22;9980;51.020;7.772;2023-11-22T09:00:05;3.90;99.90
19665;DHT22;9980;51.020;7.772;2023-11-22T09:02:36;4.00;99.90
19665;DHT22;9980;51.020;7.772;2023-11-22T09:05:05;4.10;99.90
19665;DHT22;9980;51.020;7.772;2023-11-22T09:07:36;4.10;99.90
19665;DHT22;9980;51.020;7.772;2023-11-22T09:10:06;4.20;99.90
19665;DHT22;9980;51.020;7.772;2023-11-22T09:12:43;4.30;99.90
19665;DHT22;9980;51.020;7.772;2023-11-22T09:15:12;4.40;99.90
19665;DHT22;9980;51.020;7.772;2023-11-22T09:17:52;4.40;99.90
19665;DHT22;9980;51.020;7.772;2023-11-22T09:20:20;4.60;99.90
19665;DHT22;9980;51.020;7.772;2023-11-22T09:22:49;4.60;99.90
19665;DHT22;9980;51.020;7.772;2023-11-22T09:25:22;4.70;99.90
19665;DHT22;9980;51.020;7.772;2023-11-22T09:27:53;4.70;99.90
19665;DHT22;9980;51.020;7.772;2023-11-22T09:30:31;4.80;99.90
19665;DHT22;9980;51.020;7.772;2023-11-22T09:33:10;4.90;99.90
19665;DHT22;9980;51.020;7.772;2023-11-22T09:35:43;5.00;99.90
19665;DHT22;9980;51.020;7.772;2023-11-22T09:38:12;5.00;99.90
19665;DHT22;9980;51.020;7.772;2023-11-22T09:40:45;5.20;99.90
19665;DHT22;9980;51.020;7.772;2023-11-22T09:43:14;5.30;99.90
19665;DHT22;9980;51.020;7.772;2023-11-22T09:45:44;5.40;99.90
19665;DHT22;9980;51.020;7.772;2023-11-22T09:48:20;5.50;99.90
19665;DHT22;9980;51.020;7.772;2023-11-22T09:53:36;5.70;99.90
19665;DHT22;9980;51.020;7.772;2023-11-22T09:56:11;5.80;99.90
19665;DHT22;9980;51.020;7.772;2023-11-22T09:58:42;5.90;99.90
19665;DHT22;9980;51.020;7.772;2023-11-22T10:01:11;6.00;99.90
19665;DHT22;9980;51.020;7.772;2023-11-22T10:03:40;6.10;99.90
19665;DHT22;9980;51.020;7.772;2023-11-22T10:06:08;6.20;99.90
19665;DHT22;9980;51.020;7.772;2023-11-22T10:08:35;6.20;99.90
19665;DHT22;9980;51.020;7.772;2023-11-22T10:11:04;6.30;99.90
19665;DHT22;9980;51.020;7.772;2023-11-22T10:13:31;6.40;99.90
19665;DHT22;9980;51.020;7.772;2023-11-22T10:16:09;6.40;99.90
19665;DHT22;9980;51.020;7.772;2023-11-22T10:18:43;6.50;99.90
19665;DHT22;9980;51.020;7.772;2023-11-22T10:23:48;6.60;99.90
19665;DHT22;9980;51.020;7.772;2023-11-22T10:26:16;6.70;99.90
19665;DHT22;9980;51.020;7.772;2023-11-22T10:28:44;6.80;99.90
19665;DHT22;9980;51.020;7.772;2023-11-22T10:31:11;6.80;99.90
19665;DHT22;9980;51.020;7.772;2023-11-22T10:33:42;6.90;99.90
19665;DHT22;9980;51.020;7.772;2023-11-22T10:36:10;6.90;99.90
19665;DHT22;9980;51.020;7.772;2023-11-22T10:38:39;7.00;99.90
19665;DHT22;9980;51.020;7.772;2023-11-22T10:41:07;7.00;99.90
19665;DHT22;9980;51.020;7.772;2023-11-22T10:43:35;7.10;99.90
19665;DHT22;9980;51.020;7.772;2023-11-22T10:46:03;7.20;99.90
19665;DHT22;9980;51.020;7.772;2023-11-22T10:48:36;7.20;99.90
19665;DHT22;9980;51.020;7.772;2023-11-22T10:51:04;7.20;99.90
19665;DHT22;9980;51.020;7.772;2023-11-22T10:53:36;7.30;99.90
19665;DHT22;9980;51.020;7.772;2023-11-22T10:56:11;7.30;99.90
19665;DHT22;9980;51.020;7.772;2023-11-22T10:58:49;7.40;99.90
19665;DHT22;9980;51.020;7.772;2023-11-22T11:01:18;7.40;99.90
19665;DHT22;9980;51.020;7.772;2023-11-22T11:03:56;7.40;99.90
19665;DHT22;9980;51.020;7.772;2023-11-22T11:06:32;7.50;99.90
19665;DHT22;9980;51.020;7.772;2023-11-22T11:09:02;7.50;99.90
19665;DHT22;9980;51.020;7.772;2023-11-22T11:11:34;7.60;99.90
19665;DHT22;9980;51.020;7.772;2023-11-22T11:14:04;7.60;99.90
19665;DHT22;9980;51.020;7.772;2023-11-22T11:16:35;7.70;99.90
19665;DHT22;9980;51.020;7.772;2023-11-22T11:19:05;7.70;99.90
19665;DHT22;9980;51.020;7.772;2023-11-22T11:21:34;7.80;99.90
19665;DHT22;9980;51.020;7.772;2023-11-22T11:24:05;7.80;99.90
19665;DHT22;9980;51.020;7.772;2023-11-22T11:26:33;7.80;99.90
19665;DHT22;9980;51.020;7.772;2023-11-22T11:29:03;7.80;99.90
19665;DHT22;9980;51.020;7.772;2023-11-22T11:31:32;7.80;99.90
19665;DHT22;9980;51.020;7.772;2023-11-22T11:34:05;7.90;99.90
19665;DHT22;9980;51.020;7.772;2023-11-22T11:36:33;7.90;99.90
19665;DHT22;9980;51.020;7.772;2023-11-22T11:39:08;7.90;99.90
19665;DHT22;9980;51.020;7.772;2023-11-22T11:41:42;8.00;99.90
19665;DHT22;9980;51.020;7.772;2023-11-22T11:44:10;8.00;99.90
19665;DHT22;9980;51.020;7.772;2023-11-22T11:46:39;8.00;99.90
19665;DHT22;9980;51.020;7.772;2023-11-22T11:49:08;8.10;99.90
19665;DHT22;9980;51.020;7.772;2023-11-22T11:51:40;8.10;99.90
19665;DHT22;9980;51.020;7.772;2023-11-22T11:54:07;8.10;99.90
19665;DHT22;9980;51.020;7.772;2023-11-22T11:56:36;8.20;99.90
19665;DHT22;9980;51.020;7.772;2023-11-22T11:59:03;8.20;99.90
19665;DHT22;9980;51.020;7.772;2023-11-22T12:01:31;8.20;99.90
19665;DHT22;9980;51.020;7.772;2023-11-22T12:04:02;8.20;99.40
19665;DHT22;9980;51.020;7.772;2023-11-22T12:06:29;8.20;99.00
19665;DHT22;9980;51.020;7.772;2023-11-22T12:09:03;8.30;99.50
19665;DHT22;9980;51.020;7.772;2023-11-22T12:11:30;8.20;98.60
19665;DHT22;9980;51.020;7.772;2023-11-22T12:13:58;8.30;98.50
19665;DHT22;9980;51.020;7.772;2023-11-22T12:16:26;8.30;97.90
19665;DHT22;9980;51.020;7.772;2023-11-22T12:18:54;8.30;97.80
19665;DHT22;9980;51.020;7.772;2023-11-22T12:21:23;8.30;97.50
19665;DHT22;9980;51.020;7.772;2023-11-22T12:23:50;8.20;97.60
19665;DHT22;9980;51.020;7.772;2023-11-22T12:26:20;8.30;97.80
19665;DHT22;9980;51.020;7.772;2023-11-22T12:28:48;8.20;98.00
19665;DHT22;9980;51.020;7.772;2023-11-22T12:31:30;8.20;97.50
19665;DHT22;9980;51.020;7.772;2023-11-22T12:34:03;8.20;97.20
19665;DHT22;9980;51.020;7.772;2023-11-22T12:36:33;8.20;97.80
19665;DHT22;9980;51.020;7.772;2023-11-22T12:39:01;8.20;98.20
19665;DHT22;9980;51.020;7.772;2023-11-22T12:41:30;8.20;98.20
19665;DHT22;9980;51.020;7.772;2023-11-22T12:46:45;8.20;98.00
19665;DHT22;9980;51.020;7.772;2023-11-22T12:49:13;8.20;98.40
19665;DHT22;9980;51.020;7.772;2023-11-22T12:51:46;8.20;98.60
19665;DHT22;9980;51.020;7.772;2023-11-22T12:54:16;8.20;97.80
19665;DHT22;9980;51.020;7.772;2023-11-22T12:56:50;8.20;97.70
19665;DHT22;9980;51.020;7.772;2023-11-22T12:59:20;8.20;97.70
19665;DHT22;9980;51.020;7.772;2023-11-22T13:01:47;8.20;97.90
19665;DHT22;9980;51.020;7.772;2023-11-22T13:04:15;8.30;97.70
19665;DHT22;9980;51.020;7.772;2023-11-22T13:06:42;8.30;97.80
19665;DHT22;9980;51.020;7.772;2023-11-22T13:09:09;8.20;97.60
19665;DHT22;9980;51.020;7.772;2023-11-22T13:11:43;8.30;97.50
19665;DHT22;9980;51.020;7.772;2023-11-22T13:14:11;8.30;97.80
19665;DHT22;9980;51.020;7.772;2023-11-22T13:16:41;8.30;98.80
19665;DHT22;9980;51.020;7.772;2023-11-22T13:19:09;8.30;98.90
19665;DHT22;9980;51.020;7.772;2023-11-22T13:21:38;8.30;99.40
19665;DHT22;9980;51.020;7.772;2023-11-22T13:24:07;8.30;99.40
19665;DHT22;9980;51.020;7.772;2023-11-22T13:26:35;8.30;99.60
19665;DHT22;9980;51.020;7.772;2023-11-22T13:29:02;8.30;99.80
19665;DHT22;9980;51.020;7.772;2023-11-22T13:31:29;8.40;99.70
19665;DHT22;9980;51.020;7.772;2023-11-22T13:33:56;8.40;99.90
19665;DHT22;9980;51.020;7.772;2023-11-22T13:36:23;8.40;99.60
19665;DHT22;9980;51.020;7.772;2023-11-22T13:38:50;8.40;99.80
19665;DHT22;9980;51.020;7.772;2023-11-22T13:41:17;8.30;99.90
19665;DHT22;9980;51.020;7.772;2023-11-22T13:43:44;8.40;99.90
19665;DHT22;9980;51.020;7.772;2023-11-22T13:46:13;8.40;99.90
19665;DHT22;9980;51.020;7.772;2023-11-22T13:48:42;8.40;99.90
19665;DHT22;9980;51.020;7.772;2023-11-22T13:51:09;8.40;99.90
19665;DHT22;9980;51.020;7.772;2023-11-22T13:53:37;8.40;99.90
19665;DHT22;9980;51.020;7.772;2023-11-22T13:56:10;8.40;99.90
19665;DHT22;9980;51.020;7.772;2023-11-22T13:58:39;8.40;99.90
19665;DHT22;9980;51.020;7.772;2023-11-22T14:01:06;8.40;99.90
19665;DHT22;9980;51.020;7.772;2023-11-22T14:03:38;8.40;99.90
19665;DHT22;9980;51.020;7.772;2023-11-22T14:06:06;8.50;99.90
19665;DHT22;9980;51.020;7.772;2023-11-22T14:08:33;8.50;99.90
19665;DHT22;9980;51.020;7.772;2023-11-22T14:11:01;8.50;99.90
19665;DHT22;9980;51.020;7.772;2023-11-22T14:13:28;8.50;99.90
19665;DHT22;9980;51.020;7.772;2023-11-22T14:15:54;8.50;99.90
19665;DHT22;9980;51.020;7.772;2023-11-22T14:18:22;8.40;99.90
19665;DHT22;9980;51.020;7.772;2023-11-22T14:20:49;8.40;99.90
19665;DHT22;9980;51.020;7.772;2023-11-22T14:23:16;8.40;99.90
19665;DHT22;9980;51.020;7.772;2023-11-22T14:25:44;8.30;99.90
19665;DHT22;9980;51.020;7.772;2023-11-22T14:28:12;8.30;99.90
19665;DHT22;9980;51.020;7.772;2023-11-22T14:30:40;8.30;99.90
19665;DHT22;9980;51.020;7.772;2023-11-22T14:33:08;8.20;99.90
19665;DHT22;9980;51.020;7.772;2023-11-22T14:35:36;8.20;99.90
19665;DHT22;9980;51.020;7.772;2023-11-22T14:38:04;8.10;99.90
19665;DHT22;9980;51.020;7.772;2023-11-22T14:40:33;8.10;99.90
19665;DHT22;9980;51.020;7.772;2023-11-22T14:43:02;8.00;99.90
19665;DHT22;9980;51.020;7.772;2023-11-22T14:45:31;8.00;99.90
19665;DHT22;9980;51.020;7.772;2023-11-22T14:47:59;7.90;99.90
19665;DHT22;9980;51.020;7.772;2023-11-22T14:50:28;7.90;99.90
19665;DHT22;9980;51.020;7.772;2023-11-22T14:52:55;7.80;99.90
19665;DHT22;9980;51.020;7.772;2023-11-22T14:55:23;7.80;99.90
19665;DHT22;9980;51.020;7.772;2023-11-22T14:57:52;7.80;99.90
19665;DHT22;9980;51.020;7.772;2023-11-22T15:00:22;7.70;99.90
19665;DHT22;9980;51.020;7.772;2023-11-22T15:02:49;7.60;99.90
19665;DHT22;9980;51.020;7.772;2023-11-22T15:05:20;7.60;99.90
19665;DHT22;9980;51.020;7.772;2023-11-22T15:07:48;7.50;99.90
19665;DHT22;9980;51.020;7.772;2023-11-22T15:10:21;7.50;99.90
19665;DHT22;9980;51.020;7.772;2023-11-22T15:12:48;7.40;99.90
19665;DHT22;9980;51.020;7.772;2023-11-22T15:15:15;7.40;99.90
19665;DHT22;9980;51.020;7.772;2023-11-22T15:17:45;7.30;99.90
19665;DHT22;9980;51.020;7.772;2023-11-22T15:20:12;7.30;99.90
19665;DHT22;9980;51.020;7.772;2023-11-22T15:22:42;7.20;99.90
19665;DHT22;9980;51.020;7.772;2023-11-22T15:25:09;7.20;99.90
19665;DHT22;9980;51.020;7.772;2023-11-22T15:27:36;7.10;99.90
19665;DHT22;9980;51.020;7.772;2023-11-22T15:30:03;7.10;99.90
19665;DHT22;9980;51.020;7.772;2023-11-22T15:32:34;7.00;99.90
19665;DHT22;9980;51.020;7.772;2023-11-22T15:35:01;7.00;99.90
19665;DHT22;9980;51.020;7.772;2023-11-22T15:37:31;7.00;99.90
19665;DHT22;9980;51.020;7.772;2023-11-22T15:39:58;6.90;99.90
19665;DHT22;9980;51.020;7.772;2023-11-22T15:42:27;6.90;99.90
19665;DHT22;9980;51.020;7.772;2023-11-22T15:44:54;6.80;99.90
19665;DHT22;9980;51.020;7.772;2023-11-22T15:47:21;6.80;99.90
19665;DHT22;9980;51.020;7.772;2023-11-22T15:49:48;6.80;99.90
19665;DHT22;9980;51.020;7.772;2023-11-22T15:52:15;6.80;99.90
19665;DHT22;9980;51.020;7.772;2023-11-22T15:54:42;6.70;99.90
19665;DHT22;9980;51.020;7.772;2023-11-22T15:57:10;6.70;99.90
19665;DHT22;9980;51.020;7.772;2023-11-22T15:59:37;6.70;99.90
19665;DHT22;9980;51.020;7.772;2023-11-22T16:02:05;6.60;99.90
19665;DHT22;9980;51.020;7.772;2023-11-22T16:04:34;6.60;99.90
19665;DHT22;9980;51.020;7.772;2023-11-22T16:07:00;6.60;99.90
19665;DHT22;9980;51.020;7.772;2023-11-22T16:09:29;6.60;99.90
19665;DHT22;9980;51.020;7.772;2023-11-22T16:11:56;6.50;99.90
19665;DHT22;9980;51.020;7.772;2023-11-22T16:14:24;6.50;99.90
19665;DHT22;9980;51.020;7.772;2023-11-22T16:16:51;6.50;99.90
19665;DHT22;9980;51.020;7.772;2023-11-22T16:19:18;6.50;99.90